CMP443 MPTO-KIAD
Flight info
| Callsign | CMP443 |
|---|---|
| Flight time | 4h 12m |
| Altitude | 37000 |
| Route | EGETA3B EGETA DCT COLBY/N0458F380 DCT EPSIM UM779 ZEUSS/N0455F390 Y329 ZFP AR23 OZENA DCT SEELO DCT GARIC Q129 AARNN DCT TRSSK CAVLR6 |
| Aircraft | B38M/M-SDE1FGHILORVWXY/HB1 |
Departure
| Time | 2026-05-07 13:15 |
|---|---|
| Airport | Tocumen International Airport (MPTO) |
Arrival
| Time | 2026-05-07 17:27 |
|---|---|
| Airport | Washington Dulles International Airport (KIAD) |
| Time | Latitude | Longitude | Altitude | Speed | Heading |
|---|---|---|---|---|---|
| 2026-05-07 12:37 | 9.07005 | -79.38510 | 33 ft | 0 kts | 318° |
| 2026-05-07 13:05 | 9.06998 | -79.38504 | 33 ft | 4 kts | 316° |
| 2026-05-07 13:05 | 9.06979 | -79.38484 | 35 ft | 4 kts | 314° |
| 2026-05-07 13:06 | 9.06959 | -79.38468 | 33 ft | 4 kts | 338° |
| 2026-05-07 13:06 | 9.06945 | -79.38466 | 33 ft | 0 kts | 18° |
| 2026-05-07 13:10 | 9.06947 | -79.38465 | 33 ft | 2 kts | 18° |
| 2026-05-07 13:10 | 9.06959 | -79.38461 | 33 ft | 4 kts | 18° |
| 2026-05-07 13:10 | 9.06989 | -79.38447 | 33 ft | 6 kts | 28° |
| 2026-05-07 13:11 | 9.07032 | -79.38424 | 33 ft | 8 kts | 27° |
| 2026-05-07 13:11 | 9.07087 | -79.38395 | 33 ft | 10 kts | 28° |
| 2026-05-07 13:11 | 9.07150 | -79.38407 | 33 ft | 10 kts | 312° |
| 2026-05-07 13:11 | 9.07188 | -79.38471 | 33 ft | 11 kts | 301° |
| 2026-05-07 13:12 | 9.07230 | -79.38543 | 35 ft | 11 kts | 301° |
| 2026-05-07 13:12 | 9.07254 | -79.38594 | 36 ft | 7 kts | 284° |
| 2026-05-07 13:12 | 9.07262 | -79.38628 | 41 ft | 3 kts | 282° |
| 2026-05-07 13:12 | 9.07264 | -79.38638 | 42 ft | 2 kts | 283° |
| 2026-05-07 13:13 | 9.07272 | -79.38668 | 46 ft | 7 kts | 288° |
| 2026-05-07 13:13 | 9.07300 | -79.38710 | 49 ft | 8 kts | 340° |
| 2026-05-07 13:13 | 9.07329 | -79.38702 | 47 ft | 1 kts | 31° |
| 2026-05-07 13:13 | 9.07331 | -79.38701 | 47 ft | 0 kts | 31° |
| 2026-05-07 13:14 | 9.07383 | -79.38669 | 50 ft | 37 kts | 31° |
| 2026-05-07 13:14 | 9.07829 | -79.38401 | 51 ft | 111 kts | 31° |
| 2026-05-07 13:14 | 9.08682 | -79.37889 | 55 ft | 170 kts | 30° |
| 2026-05-07 13:14 | 9.09716 | -79.37252 | 685 ft | 175 kts | 34° |
| 2026-05-07 13:15 | 9.10707 | -79.36501 | 1409 ft | 181 kts | 38° |
| 2026-05-07 13:15 | 9.11696 | -79.35683 | 2236 ft | 185 kts | 39° |
| 2026-05-07 13:15 | 9.12686 | -79.34866 | 3105 ft | 182 kts | 39° |
| 2026-05-07 13:15 | 9.13714 | -79.34038 | 3703 ft | 202 kts | 38° |
| 2026-05-07 13:16 | 9.14903 | -79.33096 | 4158 ft | 230 kts | 38° |
| 2026-05-07 13:16 | 9.16218 | -79.32056 | 4782 ft | 250 kts | 38° |
| 2026-05-07 13:16 | 9.17634 | -79.30935 | 5447 ft | 268 kts | 38° |
| 2026-05-07 13:16 | 9.19122 | -79.29756 | 6368 ft | 272 kts | 38° |
| 2026-05-07 13:17 | 9.20605 | -79.28582 | 7257 ft | 276 kts | 39° |
| 2026-05-07 13:17 | 9.22138 | -79.27368 | 8022 ft | 282 kts | 39° |
| 2026-05-07 13:17 | 9.23686 | -79.26141 | 8828 ft | 285 kts | 39° |
| 2026-05-07 13:17 | 9.25267 | -79.24890 | 9631 ft | 289 kts | 40° |
| 2026-05-07 13:18 | 9.26864 | -79.23624 | 10333 ft | 296 kts | 40° |
| 2026-05-07 13:18 | 9.28532 | -79.22303 | 10684 ft | 314 kts | 40° |
| 2026-05-07 13:18 | 9.30299 | -79.20904 | 11110 ft | 328 kts | 40° |
| 2026-05-07 13:18 | 9.32108 | -79.19470 | 11826 ft | 330 kts | 40° |
| 2026-05-07 13:19 | 9.33906 | -79.18045 | 12535 ft | 334 kts | 40° |
| 2026-05-07 13:19 | 9.35743 | -79.16589 | 13279 ft | 336 kts | 40° |
| 2026-05-07 13:19 | 9.37599 | -79.15118 | 13984 ft | 339 kts | 40° |
| 2026-05-07 13:19 | 9.39466 | -79.13638 | 14608 ft | 343 kts | 40° |
| 2026-05-07 13:20 | 9.41346 | -79.12147 | 15270 ft | 344 kts | 40° |
| 2026-05-07 13:20 | 9.43242 | -79.10644 | 15862 ft | 349 kts | 40° |
| 2026-05-07 13:20 | 9.45165 | -79.09120 | 16433 ft | 352 kts | 39° |
| 2026-05-07 13:20 | 9.47317 | -79.07908 | 17039 ft | 359 kts | 21° |
| 2026-05-07 13:21 | 9.49755 | -79.07414 | 17626 ft | 365 kts | 9° |
| 2026-05-07 13:21 | 9.52325 | -79.07117 | 18177 ft | 369 kts | 9° |
| 2026-05-07 13:21 | 9.54858 | -79.06843 | 18663 ft | 372 kts | 9° |
| 2026-05-07 13:21 | 9.57444 | -79.06579 | 19151 ft | 374 kts | 8° |
| 2026-05-07 13:22 | 9.60044 | -79.06321 | 19629 ft | 376 kts | 8° |
| 2026-05-07 13:22 | 9.62659 | -79.06067 | 20104 ft | 378 kts | 8° |
| 2026-05-07 13:22 | 9.65279 | -79.05813 | 20576 ft | 380 kts | 8° |
| 2026-05-07 13:22 | 9.67934 | -79.05558 | 21044 ft | 382 kts | 8° |
| 2026-05-07 13:23 | 9.70554 | -79.05305 | 21495 ft | 384 kts | 8° |
| 2026-05-07 13:23 | 9.73220 | -79.05048 | 21960 ft | 386 kts | 9° |
| 2026-05-07 13:23 | 9.75908 | -79.04788 | 22427 ft | 389 kts | 9° |
| 2026-05-07 13:23 | 9.78606 | -79.04528 | 22875 ft | 391 kts | 9° |
| 2026-05-07 13:24 | 9.81316 | -79.04267 | 23335 ft | 393 kts | 9° |
| 2026-05-07 13:24 | 9.84051 | -79.04004 | 23729 ft | 395 kts | 9° |
| 2026-05-07 13:24 | 9.86796 | -79.03739 | 24094 ft | 397 kts | 9° |
| 2026-05-07 13:24 | 9.89560 | -79.03472 | 24451 ft | 400 kts | 9° |
| 2026-05-07 13:25 | 9.92341 | -79.03204 | 24808 ft | 402 kts | 9° |
| 2026-05-07 13:25 | 9.95142 | -79.02934 | 25159 ft | 405 kts | 8° |
| 2026-05-07 13:25 | 9.97947 | -79.02663 | 25516 ft | 407 kts | 8° |
| 2026-05-07 13:25 | 10.00783 | -79.02389 | 25868 ft | 410 kts | 8° |
| 2026-05-07 13:26 | 10.03633 | -79.02114 | 26207 ft | 413 kts | 8° |
| 2026-05-07 13:26 | 10.06465 | -79.01840 | 26541 ft | 415 kts | 8° |
| 2026-05-07 13:26 | 10.09354 | -79.01561 | 26878 ft | 418 kts | 8° |
| 2026-05-07 13:26 | 10.12261 | -79.01280 | 27215 ft | 420 kts | 8° |
| 2026-05-07 13:27 | 10.15186 | -79.00998 | 27552 ft | 423 kts | 8° |
| 2026-05-07 13:27 | 10.18124 | -79.00714 | 27880 ft | 425 kts | 8° |
| 2026-05-07 13:27 | 10.21068 | -79.00429 | 28205 ft | 428 kts | 8° |
| 2026-05-07 13:27 | 10.24056 | -79.00140 | 28523 ft | 430 kts | 8° |
| 2026-05-07 13:28 | 10.27044 | -78.99851 | 28835 ft | 433 kts | 8° |
| 2026-05-07 13:28 | 10.30049 | -78.99561 | 29139 ft | 435 kts | 8° |
| 2026-05-07 13:28 | 10.33080 | -78.99268 | 29452 ft | 438 kts | 8° |
| 2026-05-07 13:28 | 10.36123 | -78.98973 | 29748 ft | 440 kts | 8° |
| 2026-05-07 13:29 | 10.39141 | -78.98681 | 30024 ft | 443 kts | 8° |
| 2026-05-07 13:29 | 10.42214 | -78.98383 | 30313 ft | 444 kts | 8° |
| 2026-05-07 13:29 | 10.45290 | -78.98086 | 30583 ft | 445 kts | 8° |
| 2026-05-07 13:29 | 10.48374 | -78.97787 | 30829 ft | 447 kts | 8° |
| 2026-05-07 13:30 | 10.51486 | -78.97486 | 31087 ft | 449 kts | 8° |
| 2026-05-07 13:30 | 10.54612 | -78.97183 | 31343 ft | 451 kts | 8° |
| 2026-05-07 13:30 | 10.57739 | -78.96880 | 31593 ft | 452 kts | 8° |
| 2026-05-07 13:30 | 10.60878 | -78.96576 | 31840 ft | 454 kts | 7° |
| 2026-05-07 13:31 | 10.64040 | -78.96270 | 32082 ft | 456 kts | 7° |
| 2026-05-07 13:31 | 10.67210 | -78.95962 | 32325 ft | 458 kts | 7° |
| 2026-05-07 13:31 | 10.70386 | -78.95654 | 32561 ft | 460 kts | 7° |
| 2026-05-07 13:31 | 10.73572 | -78.95345 | 32804 ft | 462 kts | 7° |
| 2026-05-07 13:32 | 10.76782 | -78.95034 | 33029 ft | 463 kts | 7° |
| 2026-05-07 13:32 | 10.79997 | -78.94722 | 33274 ft | 464 kts | 7° |
| 2026-05-07 13:32 | 10.83213 | -78.94410 | 33606 ft | 464 kts | 7° |
| 2026-05-07 13:32 | 10.86384 | -78.94102 | 33938 ft | 463 kts | 7° |
| 2026-05-07 13:33 | 10.89591 | -78.93790 | 34239 ft | 462 kts | 7° |
| 2026-05-07 13:33 | 10.92789 | -78.93480 | 34544 ft | 461 kts | 7° |
| 2026-05-07 13:33 | 10.95973 | -78.93171 | 34864 ft | 459 kts | 6° |
| 2026-05-07 13:33 | 10.99142 | -78.92863 | 35193 ft | 457 kts | 6° |
| 2026-05-07 13:34 | 11.02295 | -78.92556 | 35502 ft | 455 kts | 6° |
| 2026-05-07 13:34 | 11.08586 | -78.91945 | 36094 ft | 452 kts | 6° |
| 2026-05-07 13:34 | 11.11725 | -78.91639 | 36375 ft | 452 kts | 6° |
| 2026-05-07 13:35 | 11.14845 | -78.91336 | 36668 ft | 450 kts | 6° |
| 2026-05-07 13:35 | 11.17967 | -78.91033 | 36918 ft | 449 kts | 6° |
| 2026-05-07 13:35 | 11.21077 | -78.90730 | 36964 ft | 448 kts | 6° |
| 2026-05-07 13:36 | 11.27213 | -78.90132 | 36956 ft | 444 kts | 6° |
| 2026-05-07 13:36 | 11.33377 | -78.89532 | 36954 ft | 445 kts | 6° |
| 2026-05-07 13:37 | 11.39559 | -78.88930 | 36952 ft | 445 kts | 6° |
| 2026-05-07 13:37 | 11.45734 | -78.88328 | 36949 ft | 445 kts | 6° |
| 2026-05-07 13:38 | 11.51856 | -78.87731 | 36952 ft | 445 kts | 6° |
| 2026-05-07 13:38 | 11.58024 | -78.87129 | 36952 ft | 445 kts | 6° |
| 2026-05-07 13:39 | 11.64204 | -78.86526 | 36951 ft | 445 kts | 6° |
| 2026-05-07 13:39 | 11.70378 | -78.85923 | 36953 ft | 445 kts | 6° |
| 2026-05-07 13:40 | 11.76545 | -78.85321 | 36950 ft | 445 kts | 6° |
| 2026-05-07 13:40 | 11.82720 | -78.84717 | 36952 ft | 445 kts | 6° |
| 2026-05-07 13:41 | 11.88856 | -78.84118 | 36951 ft | 445 kts | 6° |
| 2026-05-07 13:41 | 11.95035 | -78.83513 | 36948 ft | 445 kts | 6° |
| 2026-05-07 13:42 | 12.01199 | -78.82910 | 36950 ft | 445 kts | 7° |
| 2026-05-07 13:42 | 12.07372 | -78.82306 | 36950 ft | 446 kts | 7° |
| 2026-05-07 13:43 | 12.13545 | -78.81701 | 36952 ft | 445 kts | 7° |
| 2026-05-07 13:43 | 12.19712 | -78.81097 | 36952 ft | 445 kts | 7° |
| 2026-05-07 13:44 | 12.25881 | -78.80492 | 36958 ft | 446 kts | 7° |
| 2026-05-07 13:44 | 12.32010 | -78.79891 | 36958 ft | 445 kts | 7° |
| 2026-05-07 13:45 | 12.38181 | -78.79284 | 36956 ft | 446 kts | 7° |
| 2026-05-07 13:45 | 12.44357 | -78.78679 | 36957 ft | 446 kts | 7° |
| 2026-05-07 13:46 | 12.50522 | -78.78073 | 36960 ft | 445 kts | 7° |
| 2026-05-07 13:46 | 12.56690 | -78.77467 | 36966 ft | 446 kts | 7° |
| 2026-05-07 13:47 | 12.62864 | -78.76860 | 36964 ft | 446 kts | 7° |
| 2026-05-07 13:47 | 12.69036 | -78.76253 | 36969 ft | 445 kts | 7° |
| 2026-05-07 13:48 | 12.75155 | -78.75650 | 36970 ft | 445 kts | 7° |
| 2026-05-07 13:48 | 12.81333 | -78.75042 | 36974 ft | 445 kts | 7° |
| 2026-05-07 13:49 | 12.87504 | -78.74434 | 36980 ft | 445 kts | 7° |
| 2026-05-07 13:49 | 12.93674 | -78.73825 | 36980 ft | 445 kts | 6° |
| 2026-05-07 13:50 | 12.99834 | -78.73218 | 36981 ft | 445 kts | 7° |
| 2026-05-07 13:50 | 13.06005 | -78.72609 | 36981 ft | 444 kts | 7° |
| 2026-05-07 13:51 | 13.12163 | -78.72001 | 36983 ft | 444 kts | 7° |
| 2026-05-07 13:51 | 13.18331 | -78.71393 | 36982 ft | 445 kts | 7° |
| 2026-05-07 13:52 | 13.24450 | -78.70788 | 36978 ft | 444 kts | 6° |
| 2026-05-07 13:52 | 13.30615 | -78.70179 | 36979 ft | 445 kts | 6° |
| 2026-05-07 13:53 | 13.36787 | -78.69568 | 36977 ft | 445 kts | 6° |
| 2026-05-07 13:53 | 13.42957 | -78.68958 | 36983 ft | 445 kts | 6° |
| 2026-05-07 13:54 | 13.49120 | -78.68348 | 36978 ft | 445 kts | 6° |
| 2026-05-07 13:54 | 13.55302 | -78.67736 | 36982 ft | 446 kts | 6° |
| 2026-05-07 13:55 | 13.60437 | -78.67226 | 36981 ft | 445 kts | 6° |
| 2026-05-07 13:55 | 13.66608 | -78.66614 | 36981 ft | 446 kts | 6° |
| 2026-05-07 13:56 | 13.73796 | -78.65901 | 36978 ft | 447 kts | 6° |
| 2026-05-07 13:56 | 13.78946 | -78.65390 | 36980 ft | 446 kts | 6° |
| 2026-05-07 13:57 | 13.85139 | -78.64775 | 36986 ft | 447 kts | 6° |
| 2026-05-07 13:57 | 13.91328 | -78.64160 | 36986 ft | 447 kts | 6° |
| 2026-05-07 13:58 | 13.97499 | -78.63547 | 36989 ft | 446 kts | 6° |
| 2026-05-07 13:58 | 14.03688 | -78.62930 | 36993 ft | 447 kts | 6° |
| 2026-05-07 13:59 | 14.09886 | -78.62314 | 36995 ft | 447 kts | 6° |
| 2026-05-07 13:59 | 14.16070 | -78.61697 | 36996 ft | 447 kts | 6° |
| 2026-05-07 14:00 | 14.22230 | -78.61084 | 36997 ft | 447 kts | 6° |
| 2026-05-07 14:00 | 14.28423 | -78.60466 | 37004 ft | 447 kts | 6° |
| 2026-05-07 14:01 | 14.34603 | -78.59850 | 37004 ft | 446 kts | 6° |
| 2026-05-07 14:01 | 14.40799 | -78.59232 | 37004 ft | 447 kts | 6° |
| 2026-05-07 14:02 | 14.46957 | -78.58617 | 37001 ft | 447 kts | 6° |
| 2026-05-07 14:02 | 14.53150 | -78.57998 | 36999 ft | 447 kts | 6° |
| 2026-05-07 14:03 | 14.59343 | -78.57379 | 36997 ft | 447 kts | 6° |
| 2026-05-07 14:03 | 14.65543 | -78.56760 | 36999 ft | 447 kts | 5° |
| 2026-05-07 14:04 | 14.71722 | -78.56141 | 36993 ft | 446 kts | 5° |
| 2026-05-07 14:04 | 14.77910 | -78.55521 | 36997 ft | 447 kts | 5° |
| 2026-05-07 14:05 | 14.84104 | -78.54900 | 37002 ft | 447 kts | 5° |
| 2026-05-07 14:05 | 14.90282 | -78.54281 | 37001 ft | 447 kts | 5° |
| 2026-05-07 14:06 | 14.96424 | -78.53665 | 37008 ft | 447 kts | 5° |
| 2026-05-07 14:06 | 15.02609 | -78.53030 | 37013 ft | 446 kts | 5° |
| 2026-05-07 14:07 | 15.08787 | -78.52385 | 37013 ft | 445 kts | 5° |
| 2026-05-07 14:07 | 15.14963 | -78.51742 | 37014 ft | 446 kts | 5° |
| 2026-05-07 14:08 | 15.21142 | -78.51098 | 37017 ft | 446 kts | 5° |
| 2026-05-07 14:08 | 15.27309 | -78.50455 | 37015 ft | 445 kts | 5° |
| 2026-05-07 14:09 | 15.33452 | -78.49813 | 37011 ft | 446 kts | 5° |
| 2026-05-07 14:09 | 15.39632 | -78.49168 | 37013 ft | 445 kts | 5° |
| 2026-05-07 14:10 | 15.45787 | -78.48525 | 37009 ft | 445 kts | 5° |
| 2026-05-07 14:10 | 15.51964 | -78.47879 | 37014 ft | 445 kts | 5° |
| 2026-05-07 14:11 | 15.58128 | -78.47235 | 37017 ft | 445 kts | 5° |
| 2026-05-07 14:11 | 15.64253 | -78.46594 | 37020 ft | 445 kts | 5° |
| 2026-05-07 14:12 | 15.70414 | -78.45949 | 37016 ft | 446 kts | 5° |
| 2026-05-07 14:12 | 15.76579 | -78.45303 | 37020 ft | 444 kts | 5° |
| 2026-05-07 14:13 | 15.82736 | -78.44657 | 37024 ft | 445 kts | 5° |
| 2026-05-07 14:13 | 15.88860 | -78.44015 | 37026 ft | 444 kts | 5° |
| 2026-05-07 14:14 | 15.95002 | -78.43370 | 37025 ft | 444 kts | 5° |
| 2026-05-07 14:14 | 16.01160 | -78.42723 | 37027 ft | 444 kts | 5° |
| 2026-05-07 14:15 | 16.07327 | -78.42074 | 37029 ft | 443 kts | 5° |
| 2026-05-07 14:15 | 16.13462 | -78.41429 | 37025 ft | 443 kts | 5° |
| 2026-05-07 14:16 | 16.19593 | -78.40784 | 37024 ft | 443 kts | 5° |
| 2026-05-07 14:16 | 16.24545 | -78.40263 | 37024 ft | 441 kts | 5° |
| 2026-05-07 14:17 | 16.29071 | -78.39786 | 37037 ft | 443 kts | 5° |
| 2026-05-07 14:17 | 16.35206 | -78.39139 | 37033 ft | 443 kts | 5° |
| 2026-05-07 14:18 | 16.41352 | -78.38491 | 37031 ft | 443 kts | 5° |
| 2026-05-07 14:18 | 16.47475 | -78.37844 | 37032 ft | 442 kts | 5° |
| 2026-05-07 14:19 | 16.53614 | -78.37196 | 37030 ft | 443 kts | 5° |
| 2026-05-07 14:19 | 16.59753 | -78.36547 | 37035 ft | 443 kts | 5° |
| 2026-05-07 14:20 | 16.65846 | -78.35904 | 37036 ft | 443 kts | 5° |
| 2026-05-07 14:20 | 16.71970 | -78.35256 | 37040 ft | 443 kts | 5° |
| 2026-05-07 14:21 | 16.78104 | -78.34606 | 37039 ft | 441 kts | 5° |
| 2026-05-07 14:21 | 16.84221 | -78.33958 | 37039 ft | 441 kts | 5° |
| 2026-05-07 14:22 | 16.90304 | -78.33313 | 37040 ft | 441 kts | 5° |
| 2026-05-07 14:22 | 16.96454 | -78.32661 | 37042 ft | 441 kts | 5° |
| 2026-05-07 14:23 | 17.02528 | -78.32016 | 37044 ft | 441 kts | 5° |
| 2026-05-07 14:23 | 17.08636 | -78.31367 | 37046 ft | 441 kts | 5° |
| 2026-05-07 14:24 | 17.14746 | -78.30717 | 37040 ft | 440 kts | 5° |
| 2026-05-07 14:24 | 17.20841 | -78.30069 | 37040 ft | 441 kts | 5° |
| 2026-05-07 14:25 | 17.26946 | -78.29420 | 37045 ft | 441 kts | 5° |
| 2026-05-07 14:25 | 17.33043 | -78.28770 | 37045 ft | 440 kts | 5° |
| 2026-05-07 14:26 | 17.39141 | -78.28120 | 37049 ft | 441 kts | 5° |
| 2026-05-07 14:26 | 17.43625 | -78.27642 | 37046 ft | 441 kts | 5° |
| 2026-05-07 14:27 | 17.49732 | -78.26991 | 37046 ft | 441 kts | 5° |
| 2026-05-07 14:27 | 17.55835 | -78.26339 | 37052 ft | 441 kts | 5° |
| 2026-05-07 14:28 | 17.61952 | -78.25685 | 37054 ft | 441 kts | 5° |
| 2026-05-07 14:28 | 17.68058 | -78.25032 | 37054 ft | 440 kts | 5° |
| 2026-05-07 14:29 | 17.74119 | -78.24384 | 37052 ft | 441 kts | 5° |
| 2026-05-07 14:29 | 17.80221 | -78.23730 | 37052 ft | 441 kts | 5° |
| 2026-05-07 14:30 | 17.86321 | -78.23077 | 37051 ft | 441 kts | 5° |
| 2026-05-07 14:30 | 17.92427 | -78.22422 | 37053 ft | 441 kts | 5° |
| 2026-05-07 14:31 | 17.98524 | -78.21768 | 37051 ft | 441 kts | 5° |
| 2026-05-07 14:31 | 18.04624 | -78.21113 | 37051 ft | 441 kts | 5° |
| 2026-05-07 14:32 | 18.10737 | -78.20457 | 37052 ft | 443 kts | 5° |
| 2026-05-07 14:32 | 18.16894 | -78.19795 | 37057 ft | 445 kts | 5° |
| 2026-05-07 14:33 | 18.23008 | -78.19137 | 37056 ft | 445 kts | 5° |
| 2026-05-07 14:33 | 18.29167 | -78.18474 | 37055 ft | 445 kts | 5° |
| 2026-05-07 14:34 | 18.35325 | -78.17810 | 37057 ft | 445 kts | 5° |
| 2026-05-07 14:34 | 18.41486 | -78.17146 | 37058 ft | 445 kts | 5° |
| 2026-05-07 14:35 | 18.47643 | -78.16482 | 37052 ft | 445 kts | 5° |
| 2026-05-07 14:35 | 18.53762 | -78.15821 | 37052 ft | 445 kts | 5° |
| 2026-05-07 14:36 | 18.59912 | -78.15157 | 37054 ft | 445 kts | 5° |
| 2026-05-07 14:36 | 18.66077 | -78.14490 | 37056 ft | 445 kts | 5° |
| 2026-05-07 14:37 | 18.72230 | -78.13824 | 37053 ft | 445 kts | 5° |
| 2026-05-07 14:37 | 18.81461 | -78.12824 | 37055 ft | 444 kts | 5° |
| 2026-05-07 14:38 | 18.87617 | -78.12157 | 37055 ft | 445 kts | 5° |
| 2026-05-07 14:38 | 18.93761 | -78.11490 | 37056 ft | 445 kts | 5° |
| 2026-05-07 14:39 | 18.99913 | -78.10822 | 37056 ft | 444 kts | 5° |
| 2026-05-07 14:39 | 19.06067 | -78.10154 | 37060 ft | 444 kts | 5° |
| 2026-05-07 14:40 | 19.12218 | -78.09485 | 37059 ft | 444 kts | 5° |
| 2026-05-07 14:40 | 19.18355 | -78.08817 | 37059 ft | 444 kts | 5° |
| 2026-05-07 14:41 | 19.24460 | -78.08152 | 37058 ft | 444 kts | 5° |
| 2026-05-07 14:41 | 19.30608 | -78.07483 | 37059 ft | 444 kts | 5° |
| 2026-05-07 14:42 | 19.36756 | -78.06812 | 37061 ft | 444 kts | 5° |
| 2026-05-07 14:42 | 19.42894 | -78.06143 | 37065 ft | 444 kts | 5° |
| 2026-05-07 14:43 | 19.49034 | -78.05472 | 37062 ft | 444 kts | 5° |
| 2026-05-07 14:43 | 19.54137 | -78.04914 | 37061 ft | 444 kts | 5° |
| 2026-05-07 14:44 | 19.60287 | -78.04242 | 37061 ft | 444 kts | 5° |
| 2026-05-07 14:44 | 19.66431 | -78.03569 | 37061 ft | 444 kts | 5° |
| 2026-05-07 14:45 | 19.72570 | -78.02897 | 37061 ft | 444 kts | 5° |
| 2026-05-07 14:45 | 19.78675 | -78.02228 | 37061 ft | 443 kts | 5° |
| 2026-05-07 14:46 | 19.81746 | -78.02145 | 37043 ft | 440 kts | 352° |
| 2026-05-07 14:46 | 19.84772 | -78.02662 | 37075 ft | 441 kts | 351° |
| 2026-05-07 14:46 | 19.90845 | -78.03686 | 37067 ft | 441 kts | 350° |
| 2026-05-07 14:47 | 19.96896 | -78.04765 | 37066 ft | 441 kts | 349° |
| 2026-05-07 14:47 | 20.02949 | -78.05856 | 37067 ft | 441 kts | 349° |
| 2026-05-07 14:48 | 20.08978 | -78.06945 | 37071 ft | 441 kts | 349° |
| 2026-05-07 14:48 | 20.15036 | -78.08040 | 37067 ft | 440 kts | 349° |
| 2026-05-07 14:49 | 20.21078 | -78.09133 | 37064 ft | 441 kts | 349° |
| 2026-05-07 14:49 | 20.27091 | -78.10221 | 37064 ft | 441 kts | 349° |
| 2026-05-07 14:50 | 20.33136 | -78.11316 | 37067 ft | 441 kts | 349° |
| 2026-05-07 14:50 | 20.39188 | -78.12414 | 37067 ft | 441 kts | 349° |
| 2026-05-07 14:51 | 20.45226 | -78.13509 | 37067 ft | 440 kts | 349° |
| 2026-05-07 14:51 | 20.51275 | -78.14608 | 37067 ft | 440 kts | 349° |
| 2026-05-07 14:52 | 20.57278 | -78.15699 | 37067 ft | 440 kts | 349° |
| 2026-05-07 14:52 | 20.63328 | -78.16799 | 37067 ft | 440 kts | 349° |
| 2026-05-07 14:53 | 20.69370 | -78.17899 | 37064 ft | 440 kts | 349° |
| 2026-05-07 14:53 | 20.75418 | -78.19001 | 37067 ft | 440 kts | 349° |
| 2026-05-07 14:54 | 20.81423 | -78.20096 | 37067 ft | 441 kts | 349° |
| 2026-05-07 14:54 | 20.87469 | -78.21199 | 37068 ft | 441 kts | 349° |
| 2026-05-07 14:55 | 20.93518 | -78.22303 | 37066 ft | 441 kts | 349° |
| 2026-05-07 14:55 | 20.99571 | -78.23410 | 37070 ft | 441 kts | 349° |
| 2026-05-07 14:56 | 21.05623 | -78.24517 | 37070 ft | 441 kts | 349° |
| 2026-05-07 14:56 | 21.11600 | -78.25612 | 37066 ft | 441 kts | 349° |
| 2026-05-07 14:57 | 21.17639 | -78.26719 | 37070 ft | 441 kts | 349° |
| 2026-05-07 14:57 | 21.23685 | -78.27829 | 37070 ft | 441 kts | 349° |
| 2026-05-07 14:58 | 21.29740 | -78.28941 | 37070 ft | 441 kts | 349° |
| 2026-05-07 14:58 | 21.35747 | -78.30046 | 37071 ft | 441 kts | 349° |
| 2026-05-07 14:59 | 21.41795 | -78.31159 | 37073 ft | 440 kts | 349° |
| 2026-05-07 14:59 | 21.47839 | -78.32272 | 37073 ft | 440 kts | 349° |
| 2026-05-07 15:00 | 21.53869 | -78.33383 | 37075 ft | 440 kts | 349° |
| 2026-05-07 15:00 | 21.59900 | -78.34496 | 37075 ft | 440 kts | 349° |
| 2026-05-07 15:01 | 21.65929 | -78.35609 | 37076 ft | 440 kts | 349° |
| 2026-05-07 15:01 | 21.71931 | -78.36718 | 37079 ft | 440 kts | 349° |
| 2026-05-07 15:02 | 21.77955 | -78.37832 | 37075 ft | 439 kts | 349° |
| 2026-05-07 15:02 | 21.83980 | -78.38948 | 37075 ft | 439 kts | 349° |
| 2026-05-07 15:03 | 21.89996 | -78.40062 | 37075 ft | 439 kts | 349° |
| 2026-05-07 15:03 | 21.96026 | -78.41180 | 37075 ft | 439 kts | 349° |
| 2026-05-07 15:04 | 22.02011 | -78.42291 | 37074 ft | 439 kts | 349° |
| 2026-05-07 15:04 | 22.08035 | -78.43410 | 37079 ft | 439 kts | 349° |
| 2026-05-07 15:05 | 22.14043 | -78.44527 | 37078 ft | 438 kts | 349° |
| 2026-05-07 15:05 | 22.20062 | -78.45647 | 37077 ft | 438 kts | 349° |
| 2026-05-07 15:06 | 22.26078 | -78.46767 | 37076 ft | 438 kts | 349° |
| 2026-05-07 15:06 | 22.32056 | -78.47881 | 37075 ft | 438 kts | 349° |
| 2026-05-07 15:07 | 22.38084 | -78.49006 | 37083 ft | 438 kts | 348° |
| 2026-05-07 15:07 | 22.44085 | -78.50126 | 37076 ft | 438 kts | 348° |
| 2026-05-07 15:08 | 22.50092 | -78.51249 | 37075 ft | 437 kts | 348° |
| 2026-05-07 15:08 | 22.56089 | -78.52369 | 37075 ft | 437 kts | 348° |
| 2026-05-07 15:09 | 22.62090 | -78.53492 | 37077 ft | 438 kts | 348° |
| 2026-05-07 15:09 | 22.68086 | -78.54614 | 37078 ft | 438 kts | 348° |
| 2026-05-07 15:10 | 22.74057 | -78.55733 | 37081 ft | 438 kts | 348° |
| 2026-05-07 15:10 | 22.80061 | -78.56859 | 37080 ft | 438 kts | 348° |
| 2026-05-07 15:11 | 22.86064 | -78.57987 | 37080 ft | 438 kts | 348° |
| 2026-05-07 15:11 | 22.92066 | -78.59115 | 37081 ft | 438 kts | 348° |
| 2026-05-07 15:12 | 22.98065 | -78.60244 | 37083 ft | 438 kts | 348° |
| 2026-05-07 15:12 | 23.04037 | -78.61369 | 37087 ft | 438 kts | 348° |
| 2026-05-07 15:13 | 23.10038 | -78.62500 | 37084 ft | 437 kts | 348° |
| 2026-05-07 15:13 | 23.16024 | -78.63629 | 37084 ft | 437 kts | 348° |
| 2026-05-07 15:14 | 23.22019 | -78.64762 | 37083 ft | 437 kts | 348° |
| 2026-05-07 15:14 | 23.28020 | -78.65896 | 37083 ft | 437 kts | 348° |
| 2026-05-07 15:15 | 23.34019 | -78.67031 | 37096 ft | 437 kts | 348° |
| 2026-05-07 15:15 | 23.39964 | -78.68157 | 37086 ft | 436 kts | 348° |
| 2026-05-07 15:16 | 23.45950 | -78.69291 | 37079 ft | 437 kts | 348° |
| 2026-05-07 15:16 | 23.51952 | -78.70430 | 37086 ft | 437 kts | 348° |
| 2026-05-07 15:17 | 23.57953 | -78.71569 | 37087 ft | 437 kts | 348° |
| 2026-05-07 15:17 | 23.63945 | -78.72708 | 37086 ft | 437 kts | 348° |
| 2026-05-07 15:18 | 23.69949 | -78.73851 | 37088 ft | 437 kts | 348° |
| 2026-05-07 15:18 | 23.75915 | -78.74986 | 37088 ft | 437 kts | 348° |
| 2026-05-07 15:19 | 23.81905 | -78.76128 | 37088 ft | 437 kts | 348° |
| 2026-05-07 15:19 | 23.87895 | -78.77271 | 37089 ft | 437 kts | 348° |
| 2026-05-07 15:20 | 23.93886 | -78.78414 | 37085 ft | 437 kts | 348° |
| 2026-05-07 15:20 | 23.99882 | -78.79491 | 37081 ft | 439 kts | 354° |
| 2026-05-07 15:21 | 24.06015 | -78.79332 | 37061 ft | 441 kts | 358° |
| 2026-05-07 15:21 | 24.12153 | -78.79124 | 37092 ft | 442 kts | 359° |
| 2026-05-07 15:22 | 24.18293 | -78.78895 | 37086 ft | 441 kts | 359° |
| 2026-05-07 15:22 | 24.24402 | -78.78665 | 37086 ft | 441 kts | 359° |
| 2026-05-07 15:23 | 24.30550 | -78.78433 | 37087 ft | 441 kts | 359° |
| 2026-05-07 15:23 | 24.36656 | -78.78203 | 37088 ft | 441 kts | 359° |
| 2026-05-07 15:24 | 24.42798 | -78.77971 | 37084 ft | 441 kts | 359° |
| 2026-05-07 15:24 | 24.48937 | -78.77738 | 37085 ft | 441 kts | 359° |
| 2026-05-07 15:25 | 24.55079 | -78.77506 | 37087 ft | 441 kts | 359° |
| 2026-05-07 15:25 | 24.61223 | -78.77274 | 37096 ft | 441 kts | 359° |
| 2026-05-07 15:26 | 24.67354 | -78.77040 | 37089 ft | 441 kts | 359° |
| 2026-05-07 15:26 | 24.73490 | -78.76807 | 37089 ft | 441 kts | 359° |
| 2026-05-07 15:27 | 24.79633 | -78.76574 | 37090 ft | 441 kts | 359° |
| 2026-05-07 15:27 | 24.85732 | -78.76342 | 37090 ft | 441 kts | 359° |
| 2026-05-07 15:28 | 24.91876 | -78.76108 | 37094 ft | 441 kts | 358° |
| 2026-05-07 15:28 | 24.98020 | -78.75873 | 37092 ft | 441 kts | 358° |
| 2026-05-07 15:29 | 25.04124 | -78.75640 | 37092 ft | 441 kts | 358° |
| 2026-05-07 15:29 | 25.10260 | -78.75406 | 37085 ft | 441 kts | 358° |
| 2026-05-07 15:30 | 25.16396 | -78.75171 | 37091 ft | 441 kts | 358° |
| 2026-05-07 15:30 | 25.22530 | -78.74937 | 37097 ft | 441 kts | 358° |
| 2026-05-07 15:31 | 25.28669 | -78.74701 | 37090 ft | 441 kts | 358° |
| 2026-05-07 15:31 | 25.34813 | -78.74465 | 37095 ft | 442 kts | 358° |
| 2026-05-07 15:32 | 25.39908 | -78.74270 | 37093 ft | 441 kts | 358° |
| 2026-05-07 15:32 | 25.46057 | -78.74034 | 37094 ft | 441 kts | 358° |
| 2026-05-07 15:33 | 25.52199 | -78.73797 | 37104 ft | 441 kts | 358° |
| 2026-05-07 15:33 | 25.58343 | -78.73561 | 37096 ft | 442 kts | 358° |
| 2026-05-07 15:34 | 25.64446 | -78.73326 | 37095 ft | 442 kts | 358° |
| 2026-05-07 15:34 | 25.70586 | -78.73089 | 37094 ft | 442 kts | 358° |
| 2026-05-07 15:35 | 25.76729 | -78.72851 | 37095 ft | 442 kts | 358° |
| 2026-05-07 15:35 | 25.82873 | -78.72614 | 37107 ft | 442 kts | 358° |
| 2026-05-07 15:36 | 25.89005 | -78.72376 | 37097 ft | 441 kts | 358° |
| 2026-05-07 15:36 | 25.95144 | -78.72138 | 37097 ft | 442 kts | 358° |
| 2026-05-07 15:37 | 26.01288 | -78.71900 | 37098 ft | 441 kts | 358° |
| 2026-05-07 15:37 | 26.07434 | -78.71661 | 37097 ft | 441 kts | 358° |
| 2026-05-07 15:38 | 26.13565 | -78.71424 | 37110 ft | 441 kts | 358° |
| 2026-05-07 15:38 | 26.19712 | -78.71184 | 37098 ft | 441 kts | 358° |
| 2026-05-07 15:39 | 26.25816 | -78.70946 | 37101 ft | 442 kts | 358° |
| 2026-05-07 15:39 | 26.31961 | -78.70707 | 37103 ft | 442 kts | 358° |
| 2026-05-07 15:40 | 26.38095 | -78.70467 | 37105 ft | 442 kts | 358° |
| 2026-05-07 15:40 | 26.44245 | -78.70228 | 37118 ft | 442 kts | 358° |
| 2026-05-07 15:41 | 26.50393 | -78.69987 | 37110 ft | 442 kts | 358° |
| 2026-05-07 15:41 | 26.56508 | -78.69649 | 37110 ft | 443 kts | 0° |
| 2026-05-07 15:42 | 26.62652 | -78.69083 | 37107 ft | 443 kts | 0° |
| 2026-05-07 15:42 | 26.68812 | -78.68539 | 37110 ft | 443 kts | 0° |
| 2026-05-07 15:43 | 26.74962 | -78.67998 | 37106 ft | 443 kts | 360° |
| 2026-05-07 15:43 | 26.81111 | -78.67456 | 37101 ft | 443 kts | 360° |
| 2026-05-07 15:44 | 26.87249 | -78.66915 | 37099 ft | 443 kts | 360° |
| 2026-05-07 15:44 | 26.93387 | -78.66373 | 37096 ft | 443 kts | 360° |
| 2026-05-07 15:45 | 26.99531 | -78.65830 | 37098 ft | 443 kts | 360° |
| 2026-05-07 15:45 | 27.05671 | -78.65287 | 37108 ft | 442 kts | 360° |
| 2026-05-07 15:46 | 27.14819 | -78.64477 | 37100 ft | 442 kts | 360° |
| 2026-05-07 15:47 | 27.20953 | -78.63933 | 37104 ft | 442 kts | 360° |
| 2026-05-07 15:47 | 27.27097 | -78.63387 | 37090 ft | 442 kts | 360° |
| 2026-05-07 15:48 | 27.33219 | -78.62843 | 37092 ft | 442 kts | 360° |
| 2026-05-07 15:48 | 27.39350 | -78.62297 | 37096 ft | 442 kts | 360° |
| 2026-05-07 15:49 | 27.45447 | -78.61754 | 37096 ft | 442 kts | 360° |
| 2026-05-07 15:49 | 27.51575 | -78.61207 | 37090 ft | 442 kts | 360° |
| 2026-05-07 15:50 | 27.57704 | -78.60660 | 37105 ft | 442 kts | 360° |
| 2026-05-07 15:50 | 27.63837 | -78.60112 | 37097 ft | 441 kts | 359° |
| 2026-05-07 15:51 | 27.69958 | -78.59564 | 37104 ft | 441 kts | 359° |
| 2026-05-07 15:51 | 27.76084 | -78.59015 | 37095 ft | 441 kts | 359° |
| 2026-05-07 15:52 | 27.82173 | -78.58469 | 37095 ft | 441 kts | 359° |
| 2026-05-07 15:52 | 27.88301 | -78.57919 | 37095 ft | 441 kts | 359° |
| 2026-05-07 15:53 | 27.94425 | -78.57368 | 37096 ft | 441 kts | 359° |
| 2026-05-07 15:53 | 28.00543 | -78.56818 | 37098 ft | 441 kts | 359° |
| 2026-05-07 15:54 | 28.06638 | -78.56268 | 37097 ft | 441 kts | 359° |
| 2026-05-07 15:54 | 28.12757 | -78.55716 | 37097 ft | 441 kts | 359° |
| 2026-05-07 15:55 | 28.18881 | -78.55163 | 37116 ft | 441 kts | 359° |
| 2026-05-07 15:55 | 28.25009 | -78.54609 | 37097 ft | 441 kts | 359° |
| 2026-05-07 15:56 | 28.31132 | -78.54055 | 37094 ft | 441 kts | 359° |
| 2026-05-07 15:56 | 28.37240 | -78.53501 | 37094 ft | 441 kts | 359° |
| 2026-05-07 15:57 | 28.43362 | -78.52946 | 37094 ft | 441 kts | 359° |
| 2026-05-07 15:57 | 28.49480 | -78.52391 | 37106 ft | 441 kts | 358° |
| 2026-05-07 15:58 | 28.55606 | -78.51833 | 37093 ft | 442 kts | 358° |
| 2026-05-07 15:58 | 28.61731 | -78.51276 | 37092 ft | 442 kts | 358° |
| 2026-05-07 15:59 | 28.67830 | -78.50719 | 37089 ft | 442 kts | 358° |
| 2026-05-07 15:59 | 28.73957 | -78.50160 | 37089 ft | 442 kts | 358° |
| 2026-05-07 16:00 | 28.80093 | -78.49600 | 37092 ft | 442 kts | 358° |
| 2026-05-07 16:00 | 28.86236 | -78.49038 | 37092 ft | 443 kts | 358° |
| 2026-05-07 16:01 | 28.92380 | -78.48475 | 37089 ft | 443 kts | 358° |
| 2026-05-07 16:01 | 28.98521 | -78.47912 | 37086 ft | 443 kts | 358° |
| 2026-05-07 16:02 | 29.04676 | -78.47347 | 37109 ft | 443 kts | 358° |
| 2026-05-07 16:02 | 29.10780 | -78.46786 | 37086 ft | 444 kts | 358° |
| 2026-05-07 16:03 | 29.16951 | -78.46218 | 37081 ft | 444 kts | 358° |
| 2026-05-07 16:03 | 29.23105 | -78.45651 | 37078 ft | 444 kts | 358° |
| 2026-05-07 16:04 | 29.29268 | -78.45083 | 37080 ft | 444 kts | 358° |
| 2026-05-07 16:04 | 29.35442 | -78.44513 | 37088 ft | 444 kts | 358° |
| 2026-05-07 16:05 | 29.41598 | -78.43943 | 37078 ft | 444 kts | 358° |
| 2026-05-07 16:05 | 29.47725 | -78.43376 | 37081 ft | 444 kts | 358° |
| 2026-05-07 16:06 | 29.53887 | -78.42805 | 37076 ft | 444 kts | 358° |
| 2026-05-07 16:06 | 29.60044 | -78.42250 | 37074 ft | 444 kts | 358° |
| 2026-05-07 16:07 | 29.66214 | -78.41696 | 37075 ft | 445 kts | 358° |
| 2026-05-07 16:07 | 29.72398 | -78.41139 | 37070 ft | 445 kts | 358° |
| 2026-05-07 16:08 | 29.78581 | -78.40582 | 37067 ft | 445 kts | 358° |
| 2026-05-07 16:08 | 29.84735 | -78.40027 | 37068 ft | 445 kts | 358° |
| 2026-05-07 16:09 | 29.90904 | -78.39471 | 37085 ft | 445 kts | 357° |
| 2026-05-07 16:09 | 29.97088 | -78.38911 | 37073 ft | 446 kts | 357° |
| 2026-05-07 16:10 | 30.03280 | -78.38350 | 37063 ft | 446 kts | 357° |
| 2026-05-07 16:10 | 30.09472 | -78.37789 | 37057 ft | 446 kts | 357° |
| 2026-05-07 16:11 | 30.15617 | -78.37231 | 37064 ft | 446 kts | 357° |
| 2026-05-07 16:11 | 30.21816 | -78.36668 | 37063 ft | 446 kts | 357° |
| 2026-05-07 16:12 | 30.28007 | -78.36105 | 37058 ft | 446 kts | 357° |
| 2026-05-07 16:12 | 30.34192 | -78.35541 | 37057 ft | 446 kts | 357° |
| 2026-05-07 16:13 | 30.40382 | -78.34977 | 37054 ft | 446 kts | 357° |
| 2026-05-07 16:13 | 30.46558 | -78.34628 | 37055 ft | 444 kts | 355° |
| 2026-05-07 16:14 | 30.52725 | -78.34284 | 37057 ft | 443 kts | 355° |
| 2026-05-07 16:14 | 30.58889 | -78.33936 | 37049 ft | 443 kts | 355° |
| 2026-05-07 16:15 | 30.64997 | -78.33590 | 37054 ft | 443 kts | 355° |
| 2026-05-07 16:15 | 30.71151 | -78.33241 | 37051 ft | 443 kts | 355° |
| 2026-05-07 16:16 | 30.77314 | -78.32891 | 37049 ft | 443 kts | 355° |
| 2026-05-07 16:16 | 30.83477 | -78.32541 | 37045 ft | 444 kts | 355° |
| 2026-05-07 16:17 | 30.89640 | -78.32190 | 37043 ft | 444 kts | 355° |
| 2026-05-07 16:17 | 30.95810 | -78.31838 | 37042 ft | 444 kts | 355° |
| 2026-05-07 16:18 | 31.01978 | -78.31487 | 37044 ft | 445 kts | 355° |
| 2026-05-07 16:18 | 31.08135 | -78.31135 | 37039 ft | 446 kts | 355° |
| 2026-05-07 16:19 | 31.14332 | -78.30780 | 37037 ft | 446 kts | 355° |
| 2026-05-07 16:19 | 31.20535 | -78.30425 | 37032 ft | 446 kts | 355° |
| 2026-05-07 16:20 | 31.26734 | -78.30069 | 37055 ft | 446 kts | 355° |
| 2026-05-07 16:20 | 31.31899 | -78.29773 | 37033 ft | 447 kts | 355° |
| 2026-05-07 16:21 | 31.38113 | -78.29416 | 37022 ft | 448 kts | 355° |
| 2026-05-07 16:21 | 31.44355 | -78.29056 | 37015 ft | 448 kts | 355° |
| 2026-05-07 16:22 | 31.50582 | -78.28697 | 37016 ft | 448 kts | 355° |
| 2026-05-07 16:22 | 31.56812 | -78.28338 | 37023 ft | 448 kts | 354° |
| 2026-05-07 16:23 | 31.63033 | -78.27978 | 37015 ft | 448 kts | 354° |
| 2026-05-07 16:23 | 31.69218 | -78.27620 | 37008 ft | 448 kts | 354° |
| 2026-05-07 16:24 | 31.75446 | -78.27259 | 36998 ft | 448 kts | 354° |
| 2026-05-07 16:24 | 31.81669 | -78.26898 | 37016 ft | 448 kts | 354° |
| 2026-05-07 16:25 | 31.87888 | -78.26537 | 36989 ft | 447 kts | 354° |
| 2026-05-07 16:25 | 31.94105 | -78.26175 | 36999 ft | 447 kts | 354° |
| 2026-05-07 16:26 | 32.00331 | -78.25812 | 36988 ft | 447 kts | 354° |
| 2026-05-07 16:26 | 32.06566 | -78.24964 | 37001 ft | 453 kts | 358° |
| 2026-05-07 16:27 | 32.12772 | -78.24038 | 36980 ft | 451 kts | 358° |
| 2026-05-07 16:27 | 32.19004 | -78.23131 | 36975 ft | 451 kts | 358° |
| 2026-05-07 16:28 | 32.25239 | -78.22224 | 36977 ft | 451 kts | 358° |
| 2026-05-07 16:28 | 32.31481 | -78.21316 | 36964 ft | 451 kts | 358° |
| 2026-05-07 16:29 | 32.37707 | -78.20408 | 36970 ft | 451 kts | 358° |
| 2026-05-07 16:29 | 32.43908 | -78.19503 | 36962 ft | 452 kts | 358° |
| 2026-05-07 16:30 | 32.50146 | -78.18591 | 36957 ft | 452 kts | 358° |
| 2026-05-07 16:30 | 32.56387 | -78.17677 | 36958 ft | 452 kts | 358° |
| 2026-05-07 16:31 | 32.62619 | -78.16763 | 36969 ft | 452 kts | 358° |
| 2026-05-07 16:31 | 32.68878 | -78.15845 | 36957 ft | 453 kts | 358° |
| 2026-05-07 16:32 | 32.75148 | -78.14923 | 36952 ft | 453 kts | 358° |
| 2026-05-07 16:32 | 32.81400 | -78.14002 | 36947 ft | 453 kts | 358° |
| 2026-05-07 16:33 | 32.87613 | -78.13087 | 36947 ft | 453 kts | 358° |
| 2026-05-07 16:33 | 32.93866 | -78.12163 | 36944 ft | 453 kts | 358° |
| 2026-05-07 16:34 | 33.00124 | -78.11238 | 36944 ft | 453 kts | 358° |
| 2026-05-07 16:34 | 33.06386 | -78.10311 | 36941 ft | 453 kts | 358° |
| 2026-05-07 16:35 | 33.12637 | -78.09384 | 36963 ft | 453 kts | 357° |
| 2026-05-07 16:35 | 33.18927 | -78.08450 | 36944 ft | 457 kts | 357° |
| 2026-05-07 16:36 | 33.25197 | -78.07518 | 36935 ft | 457 kts | 357° |
| 2026-05-07 16:36 | 33.31511 | -78.06577 | 36936 ft | 457 kts | 357° |
| 2026-05-07 16:37 | 33.37820 | -78.05636 | 36950 ft | 457 kts | 357° |
| 2026-05-07 16:37 | 33.44150 | -78.04691 | 36928 ft | 458 kts | 356° |
| 2026-05-07 16:38 | 33.50490 | -78.03743 | 36918 ft | 459 kts | 356° |
| 2026-05-07 16:38 | 33.56821 | -78.02794 | 36920 ft | 459 kts | 356° |
| 2026-05-07 16:39 | 33.63100 | -78.01853 | 36930 ft | 459 kts | 356° |
| 2026-05-07 16:39 | 33.69447 | -78.00899 | 36928 ft | 460 kts | 356° |
| 2026-05-07 16:40 | 33.75809 | -77.99942 | 36922 ft | 461 kts | 356° |
| 2026-05-07 16:40 | 33.82165 | -77.98985 | 36925 ft | 461 kts | 356° |
| 2026-05-07 16:41 | 33.88513 | -77.98168 | 36923 ft | 452 kts | 351° |
| 2026-05-07 16:41 | 33.94790 | -77.97906 | 36923 ft | 454 kts | 350° |
| 2026-05-07 16:42 | 34.01147 | -77.97673 | 36929 ft | 454 kts | 350° |
| 2026-05-07 16:42 | 34.07420 | -77.97447 | 36920 ft | 454 kts | 350° |
| 2026-05-07 16:43 | 34.13730 | -77.97219 | 36935 ft | 454 kts | 350° |
| 2026-05-07 16:43 | 34.20052 | -77.96991 | 36943 ft | 455 kts | 349° |
| 2026-05-07 16:44 | 34.26394 | -77.96762 | 36943 ft | 456 kts | 349° |
| 2026-05-07 16:44 | 34.32737 | -77.96533 | 36944 ft | 456 kts | 349° |
| 2026-05-07 16:45 | 34.39067 | -77.96303 | 36939 ft | 456 kts | 349° |
| 2026-05-07 16:45 | 34.45427 | -77.96072 | 36912 ft | 457 kts | 349° |
| 2026-05-07 16:46 | 34.51754 | -77.95842 | 36916 ft | 458 kts | 349° |
| 2026-05-07 16:46 | 34.58161 | -77.95609 | 36930 ft | 457 kts | 349° |
| 2026-05-07 16:47 | 34.64449 | -77.95380 | 36933 ft | 454 kts | 349° |
| 2026-05-07 16:47 | 34.70792 | -77.95149 | 36930 ft | 457 kts | 349° |
| 2026-05-07 16:48 | 34.77163 | -77.94915 | 36934 ft | 458 kts | 349° |
| 2026-05-07 16:48 | 34.83538 | -77.94682 | 36930 ft | 458 kts | 349° |
| 2026-05-07 16:49 | 34.89906 | -77.94448 | 36918 ft | 458 kts | 349° |
| 2026-05-07 16:49 | 34.96304 | -77.94213 | 36913 ft | 460 kts | 348° |
| 2026-05-07 16:50 | 35.02674 | -77.93979 | 36915 ft | 461 kts | 348° |
| 2026-05-07 16:50 | 35.09073 | -77.93744 | 36915 ft | 461 kts | 348° |
| 2026-05-07 16:51 | 35.15448 | -77.93507 | 36954 ft | 461 kts | 347° |
| 2026-05-07 16:51 | 35.21871 | -77.93270 | 36908 ft | 461 kts | 347° |
| 2026-05-07 16:52 | 35.28290 | -77.93032 | 36923 ft | 461 kts | 347° |
| 2026-05-07 16:52 | 35.34611 | -77.93174 | 36931 ft | 450 kts | 341° |
| 2026-05-07 16:53 | 35.40857 | -77.93670 | 36893 ft | 449 kts | 341° |
| 2026-05-07 16:53 | 35.47108 | -77.94181 | 36893 ft | 449 kts | 341° |
| 2026-05-07 16:54 | 35.53353 | -77.94698 | 36899 ft | 449 kts | 341° |
| 2026-05-07 16:54 | 35.59584 | -77.95214 | 36894 ft | 449 kts | 341° |
| 2026-05-07 16:55 | 35.65778 | -77.95729 | 36945 ft | 449 kts | 341° |
| 2026-05-07 16:55 | 35.72005 | -77.96247 | 36879 ft | 448 kts | 340° |
| 2026-05-07 16:56 | 35.78227 | -77.96766 | 36889 ft | 449 kts | 340° |
| 2026-05-07 16:56 | 35.87568 | -77.97546 | 36895 ft | 449 kts | 340° |
| 2026-05-07 16:57 | 35.93800 | -77.98067 | 36897 ft | 448 kts | 340° |
| 2026-05-07 16:57 | 36.00017 | -77.98588 | 36908 ft | 448 kts | 340° |
| 2026-05-07 16:58 | 36.06242 | -77.99111 | 36909 ft | 448 kts | 340° |
| 2026-05-07 16:58 | 36.12452 | -77.99633 | 36909 ft | 448 kts | 340° |
| 2026-05-07 16:59 | 36.18639 | -78.00154 | 36926 ft | 448 kts | 340° |
| 2026-05-07 16:59 | 36.24862 | -78.00679 | 36914 ft | 448 kts | 340° |
| 2026-05-07 17:00 | 36.31095 | -78.01205 | 36918 ft | 449 kts | 340° |
| 2026-05-07 17:00 | 36.37336 | -78.01665 | 36913 ft | 460 kts | 347° |
| 2026-05-07 17:01 | 36.40603 | -78.01116 | 36958 ft | 480 kts | 355° |
| 2026-05-07 17:01 | 36.43905 | -78.00423 | 36889 ft | 480 kts | 354° |
| 2026-05-07 17:01 | 36.50497 | -77.99028 | 36929 ft | 482 kts | 355° |
| 2026-05-07 17:02 | 36.57077 | -77.97593 | 36973 ft | 482 kts | 355° |
| 2026-05-07 17:02 | 36.63681 | -77.96149 | 37039 ft | 482 kts | 355° |
| 2026-05-07 17:03 | 36.70325 | -77.94693 | 36981 ft | 484 kts | 355° |
| 2026-05-07 17:03 | 36.76963 | -77.93236 | 36972 ft | 483 kts | 355° |
| 2026-05-07 17:04 | 36.80265 | -77.92509 | 36840 ft | 480 kts | 355° |
| 2026-05-07 17:04 | 36.83504 | -77.91796 | 36191 ft | 479 kts | 355° |
| 2026-05-07 17:04 | 36.86786 | -77.91073 | 35615 ft | 477 kts | 355° |
| 2026-05-07 17:04 | 36.90061 | -77.90353 | 34932 ft | 479 kts | 355° |
| 2026-05-07 17:05 | 36.93347 | -77.89628 | 34156 ft | 482 kts | 356° |
| 2026-05-07 17:05 | 36.96678 | -77.88893 | 33281 ft | 487 kts | 356° |
| 2026-05-07 17:05 | 37.00019 | -77.88154 | 32498 ft | 489 kts | 357° |
| 2026-05-07 17:05 | 37.03355 | -77.87415 | 31943 ft | 485 kts | 357° |
| 2026-05-07 17:06 | 37.06660 | -77.86684 | 31492 ft | 480 kts | 357° |
| 2026-05-07 17:06 | 37.09922 | -77.85961 | 31074 ft | 478 kts | 356° |
| 2026-05-07 17:06 | 37.13234 | -77.85232 | 30463 ft | 486 kts | 356° |
| 2026-05-07 17:06 | 37.16564 | -77.84490 | 29786 ft | 486 kts | 357° |
| 2026-05-07 17:07 | 37.18772 | -77.83998 | 29348 ft | 486 kts | 357° |
| 2026-05-07 17:07 | 37.22089 | -77.83278 | 28797 ft | 478 kts | 354° |
| 2026-05-07 17:07 | 37.25328 | -77.83079 | 28185 ft | 460 kts | 346° |
| 2026-05-07 17:07 | 37.29557 | -77.83016 | 27564 ft | 455 kts | 347° |
| 2026-05-07 17:08 | 37.31692 | -77.82982 | 27215 ft | 453 kts | 347° |
| 2026-05-07 17:08 | 37.34830 | -77.82933 | 26707 ft | 450 kts | 347° |
| 2026-05-07 17:08 | 37.37959 | -77.82885 | 26158 ft | 449 kts | 347° |
| 2026-05-07 17:08 | 37.41033 | -77.82838 | 25641 ft | 447 kts | 347° |
| 2026-05-07 17:09 | 37.44143 | -77.82790 | 25130 ft | 445 kts | 347° |
| 2026-05-07 17:09 | 37.47238 | -77.82743 | 24624 ft | 443 kts | 348° |
| 2026-05-07 17:09 | 37.50314 | -77.82696 | 24119 ft | 442 kts | 348° |
| 2026-05-07 17:09 | 37.53389 | -77.82649 | 23623 ft | 441 kts | 348° |
| 2026-05-07 17:10 | 37.56454 | -77.82602 | 23113 ft | 439 kts | 348° |
| 2026-05-07 17:10 | 37.59494 | -77.82556 | 22574 ft | 437 kts | 348° |
| 2026-05-07 17:10 | 37.62530 | -77.82509 | 22071 ft | 434 kts | 348° |
| 2026-05-07 17:10 | 37.65573 | -77.82054 | 21565 ft | 451 kts | 5° |
| 2026-05-07 17:11 | 37.68546 | -77.80636 | 21128 ft | 459 kts | 14° |
| 2026-05-07 17:11 | 37.71465 | -77.79047 | 20668 ft | 455 kts | 14° |
| 2026-05-07 17:11 | 37.74374 | -77.77449 | 20174 ft | 454 kts | 14° |
| 2026-05-07 17:11 | 37.77225 | -77.75870 | 19682 ft | 452 kts | 14° |
| 2026-05-07 17:12 | 37.80106 | -77.74271 | 18888 ft | 455 kts | 15° |
| 2026-05-07 17:12 | 37.82979 | -77.72673 | 18118 ft | 447 kts | 15° |
| 2026-05-07 17:12 | 37.85805 | -77.71099 | 17316 ft | 439 kts | 15° |
| 2026-05-07 17:12 | 37.88553 | -77.69566 | 16802 ft | 424 kts | 15° |
| 2026-05-07 17:13 | 37.91209 | -77.68085 | 16417 ft | 412 kts | 14° |
| 2026-05-07 17:13 | 37.93823 | -77.66627 | 16001 ft | 409 kts | 15° |
| 2026-05-07 17:13 | 37.96415 | -77.65179 | 15602 ft | 405 kts | 15° |
| 2026-05-07 17:13 | 37.98985 | -77.63743 | 15206 ft | 402 kts | 15° |
| 2026-05-07 17:14 | 38.01530 | -77.62318 | 14828 ft | 399 kts | 15° |
| 2026-05-07 17:14 | 38.04055 | -77.60905 | 14421 ft | 395 kts | 15° |
| 2026-05-07 17:14 | 38.06534 | -77.59405 | 14008 ft | 395 kts | 19° |
| 2026-05-07 17:14 | 38.08989 | -77.57845 | 13583 ft | 392 kts | 19° |
| 2026-05-07 17:15 | 38.11389 | -77.56330 | 13210 ft | 387 kts | 19° |
| 2026-05-07 17:15 | 38.13775 | -77.54830 | 13033 ft | 377 kts | 19° |
| 2026-05-07 17:15 | 38.16081 | -77.53372 | 12680 ft | 366 kts | 19° |
| 2026-05-07 17:15 | 38.18359 | -77.51915 | 11845 ft | 368 kts | 20° |
| 2026-05-07 17:16 | 38.20653 | -77.50447 | 10999 ft | 369 kts | 21° |
| 2026-05-07 17:16 | 38.22944 | -77.48981 | 10283 ft | 367 kts | 21° |
| 2026-05-07 17:16 | 38.25248 | -77.47799 | 9769 ft | 349 kts | 8° |
| 2026-05-07 17:16 | 38.27554 | -77.47183 | 9438 ft | 325 kts | 357° |
| 2026-05-07 17:17 | 38.29741 | -77.47119 | 9445 ft | 306 kts | 353° |
| 2026-05-07 17:17 | 38.31825 | -77.47073 | 9442 ft | 292 kts | 353° |
| 2026-05-07 17:17 | 38.33815 | -77.47019 | 9457 ft | 283 kts | 353° |
| 2026-05-07 17:17 | 38.35821 | -77.46958 | 9463 ft | 295 kts | 353° |
| 2026-05-07 17:18 | 38.37901 | -77.46885 | 9426 ft | 302 kts | 354° |
| 2026-05-07 17:18 | 38.40012 | -77.46806 | 9372 ft | 305 kts | 354° |
| 2026-05-07 17:18 | 38.42136 | -77.46733 | 9215 ft | 305 kts | 353° |
| 2026-05-07 17:18 | 38.44229 | -77.46702 | 8895 ft | 305 kts | 354° |
| 2026-05-07 17:19 | 38.46345 | -77.46670 | 8569 ft | 303 kts | 354° |
| 2026-05-07 17:19 | 38.48446 | -77.46634 | 8245 ft | 301 kts | 354° |
| 2026-05-07 17:19 | 38.50525 | -77.46601 | 7994 ft | 296 kts | 354° |
| 2026-05-07 17:19 | 38.52584 | -77.46573 | 7642 ft | 295 kts | 355° |
| 2026-05-07 17:20 | 38.54636 | -77.46544 | 7338 ft | 295 kts | 355° |
| 2026-05-07 17:20 | 38.56682 | -77.46514 | 7026 ft | 293 kts | 356° |
| 2026-05-07 17:20 | 38.58711 | -77.46485 | 6613 ft | 289 kts | 356° |
| 2026-05-07 17:20 | 38.60701 | -77.46455 | 6227 ft | 281 kts | 357° |
| 2026-05-07 17:21 | 38.62602 | -77.46429 | 5881 ft | 272 kts | 357° |
| 2026-05-07 17:21 | 38.64458 | -77.46403 | 5555 ft | 261 kts | 357° |
| 2026-05-07 17:21 | 38.66242 | -77.46378 | 5298 ft | 251 kts | 356° |
| 2026-05-07 17:21 | 38.67960 | -77.46352 | 5077 ft | 244 kts | 356° |
| 2026-05-07 17:22 | 38.69672 | -77.46329 | 4736 ft | 250 kts | 355° |
| 2026-05-07 17:22 | 38.71436 | -77.46304 | 4283 ft | 255 kts | 357° |
| 2026-05-07 17:22 | 38.73210 | -77.46277 | 4005 ft | 252 kts | 358° |
| 2026-05-07 17:22 | 38.74948 | -77.46251 | 3751 ft | 247 kts | 359° |
| 2026-05-07 17:23 | 38.76613 | -77.46226 | 3497 ft | 233 kts | 359° |
| 2026-05-07 17:23 | 38.78174 | -77.46203 | 3226 ft | 216 kts | 0° |
| 2026-05-07 17:23 | 38.79620 | -77.46182 | 3015 ft | 200 kts | 0° |
| 2026-05-07 17:23 | 38.80980 | -77.46164 | 2807 ft | 191 kts | 1° |
| 2026-05-07 17:24 | 38.82268 | -77.46145 | 2583 ft | 184 kts | 0° |
| 2026-05-07 17:24 | 38.83537 | -77.46127 | 2349 ft | 180 kts | 1° |
| 2026-05-07 17:24 | 38.84638 | -77.46111 | 2138 ft | 174 kts | 1° |
| 2026-05-07 17:24 | 38.85786 | -77.46096 | 1924 ft | 156 kts | 1° |
| 2026-05-07 17:25 | 38.86816 | -77.46080 | 1742 ft | 146 kts | 1° |
| 2026-05-07 17:25 | 38.87830 | -77.46065 | 1534 ft | 143 kts | 1° |
| 2026-05-07 17:25 | 38.88816 | -77.46051 | 1335 ft | 143 kts | 1° |
| 2026-05-07 17:25 | 38.89822 | -77.46043 | 1141 ft | 145 kts | 0° |
| 2026-05-07 17:26 | 38.90828 | -77.46030 | 938 ft | 144 kts | 2° |
| 2026-05-07 17:26 | 38.91839 | -77.46021 | 729 ft | 147 kts | 1° |
| 2026-05-07 17:26 | 38.92863 | -77.46006 | 513 ft | 148 kts | 3° |
| 2026-05-07 17:26 | 38.93889 | -77.45984 | 349 ft | 146 kts | 4° |
| 2026-05-07 17:27 | 38.94740 | -77.45968 | 295 ft | 107 kts | 0° |
| 2026-05-07 17:27 | 38.95215 | -77.45960 | 294 ft | 54 kts | 0° |
| 2026-05-07 17:27 | 38.95447 | -77.45923 | 294 ft | 21 kts | 20° |
| 2026-05-07 17:27 | 38.95551 | -77.45855 | 296 ft | 14 kts | 31° |
| 2026-05-07 17:28 | 38.95631 | -77.45793 | 296 ft | 10 kts | 31° |
| 2026-05-07 17:28 | 38.95659 | -77.45771 | 297 ft | 3 kts | 34° |
| 2026-05-07 17:28 | 38.95685 | -77.45746 | 298 ft | 6 kts | 39° |
| 2026-05-07 17:28 | 38.95716 | -77.45690 | 298 ft | 9 kts | 67° |
| 2026-05-07 17:29 | 38.95708 | -77.45606 | 296 ft | 10 kts | 138° |
| 2026-05-07 17:29 | 38.95640 | -77.45594 | 297 ft | 11 kts | 180° |
| 2026-05-07 17:29 | 38.95552 | -77.45596 | 297 ft | 14 kts | 181° |
| 2026-05-07 17:29 | 38.95443 | -77.45598 | 298 ft | 17 kts | 180° |
| 2026-05-07 17:30 | 38.95321 | -77.45599 | 297 ft | 17 kts | 180° |
| 2026-05-07 17:30 | 38.95204 | -77.45601 | 297 ft | 16 kts | 181° |
| 2026-05-07 17:30 | 38.95100 | -77.45603 | 296 ft | 14 kts | 180° |
| 2026-05-07 17:30 | 38.95008 | -77.45604 | 297 ft | 12 kts | 180° |
| 2026-05-07 17:31 | 38.94928 | -77.45605 | 298 ft | 11 kts | 180° |
| 2026-05-07 17:31 | 38.94854 | -77.45606 | 296 ft | 12 kts | 181° |
| 2026-05-07 17:31 | 38.94771 | -77.45605 | 297 ft | 11 kts | 168° |
| 2026-05-07 17:31 | 38.94734 | -77.45512 | 295 ft | 15 kts | 91° |
| 2026-05-07 17:32 | 38.94733 | -77.45368 | 295 ft | 17 kts | 90° |
| 2026-05-07 17:32 | 38.94732 | -77.45225 | 295 ft | 15 kts | 90° |
| 2026-05-07 17:32 | 38.94731 | -77.45097 | 295 ft | 13 kts | 91° |
| 2026-05-07 17:32 | 38.94730 | -77.44984 | 295 ft | 12 kts | 90° |
| 2026-05-07 17:33 | 38.94729 | -77.44885 | 295 ft | 10 kts | 90° |
| 2026-05-07 17:33 | 38.94730 | -77.44800 | 295 ft | 9 kts | 80° |
| 2026-05-07 17:33 | 38.94767 | -77.44755 | 296 ft | 7 kts | 16° |
| 2026-05-07 17:33 | 38.94809 | -77.44743 | 296 ft | 5 kts | 12° |
| 2026-05-07 17:34 | 38.94821 | -77.44740 | 297 ft | 0 kts | 12° |
| 2026-05-07 17:34 | 38.94824 | -77.44739 | 297 ft | 0 kts | 12° |